sensor_id;sensor_type;location;lat;lon;timestamp;temperature;humidity
25248;DHT22;13191;47.472;11.214;2023-08-31T00:01:40;11.90;99.90
25248;DHT22;13191;47.472;11.214;2023-08-31T00:04:06;11.90;99.90
25248;DHT22;13191;47.472;11.214;2023-08-31T00:06:40;11.80;99.90
25248;DHT22;13191;47.472;11.214;2023-08-31T00:09:06;11.80;99.90
25248;DHT22;13191;47.472;11.214;2023-08-31T00:11:38;11.80;99.90
25248;DHT22;13191;47.472;11.214;2023-08-31T00:14:04;11.90;99.90
25248;DHT22;13191;47.472;11.214;2023-08-31T00:16:29;11.90;99.90
25248;DHT22;13191;47.472;11.214;2023-08-31T00:18:56;11.90;99.90
25248;DHT22;13191;47.472;11.214;2023-08-31T00:21:22;11.90;99.90
25248;DHT22;13191;47.472;11.214;2023-08-31T00:23:48;11.90;99.90
25248;DHT22;13191;47.472;11.214;2023-08-31T00:26:14;11.90;99.90
25248;DHT22;13191;47.472;11.214;2023-08-31T00:28:40;11.90;99.90
25248;DHT22;13191;47.472;11.214;2023-08-31T00:31:08;11.90;99.90
25248;DHT22;13191;47.472;11.214;2023-08-31T00:33:34;11.90;99.90
25248;DHT22;13191;47.472;11.214;2023-08-31T00:36:00;11.90;99.90
25248;DHT22;13191;47.472;11.214;2023-08-31T00:38:29;11.80;99.90
25248;DHT22;13191;47.472;11.214;2023-08-31T00:40:55;11.80;99.90
25248;DHT22;13191;47.472;11.214;2023-08-31T00:43:21;11.90;99.90
25248;DHT22;13191;47.472;11.214;2023-08-31T00:45:49;11.90;99.90
25248;DHT22;13191;47.472;11.214;2023-08-31T00:48:15;11.90;99.90
25248;DHT22;13191;47.472;11.214;2023-08-31T00:50:46;11.90;99.90
25248;DHT22;13191;47.472;11.214;2023-08-31T00:53:12;11.90;99.90
25248;DHT22;13191;47.472;11.214;2023-08-31T00:55:38;11.90;99.90
25248;DHT22;13191;47.472;11.214;2023-08-31T00:58:07;11.90;99.90
25248;DHT22;13191;47.472;11.214;2023-08-31T01:00:51;11.90;99.90
25248;DHT22;13191;47.472;11.214;2023-08-31T01:03:52;11.90;99.90
25248;DHT22;13191;47.472;11.214;2023-08-31T01:06:32;11.90;99.90
25248;DHT22;13191;47.472;11.214;2023-08-31T01:09:25;11.80;99.90
25248;DHT22;13191;47.472;11.214;2023-08-31T01:12:00;11.90;99.90
25248;DHT22;13191;47.472;11.214;2023-08-31T01:14:34;11.90;99.90
25248;DHT22;13191;47.472;11.214;2023-08-31T01:17:04;11.90;99.90
25248;DHT22;13191;47.472;11.214;2023-08-31T01:19:48;11.90;99.90
25248;DHT22;13191;47.472;11.214;2023-08-31T01:25:08;11.90;99.90
25248;DHT22;13191;47.472;11.214;2023-08-31T01:27:35;11.80;99.90
25248;DHT22;13191;47.472;11.214;2023-08-31T01:30:02;11.90;99.90
25248;DHT22;13191;47.472;11.214;2023-08-31T01:32:29;11.80;99.90
25248;DHT22;13191;47.472;11.214;2023-08-31T01:34:55;11.80;99.90
25248;DHT22;13191;47.472;11.214;2023-08-31T01:37:55;11.80;99.90
25248;DHT22;13191;47.472;11.214;2023-08-31T01:41:10;11.80;99.90
25248;DHT22;13191;47.472;11.214;2023-08-31T01:43:40;11.80;99.90
25248;DHT22;13191;47.472;11.214;2023-08-31T01:46:07;11.80;99.90
25248;DHT22;13191;47.472;11.214;2023-08-31T01:48:41;11.80;99.90
25248;DHT22;13191;47.472;11.214;2023-08-31T01:51:07;11.70;99.90
25248;DHT22;13191;47.472;11.214;2023-08-31T01:53:34;11.70;99.90
25248;DHT22;13191;47.472;11.214;2023-08-31T01:56:00;11.70;99.90
25248;DHT22;13191;47.472;11.214;2023-08-31T01:58:25;11.70;99.90
25248;DHT22;13191;47.472;11.214;2023-08-31T02:00:51;11.70;99.90
25248;DHT22;13191;47.472;11.214;2023-08-31T02:03:16;11.70;99.90
25248;DHT22;13191;47.472;11.214;2023-08-31T02:05:42;11.60;99.90
25248;DHT22;13191;47.472;11.214;2023-08-31T02:08:07;11.60;99.90
25248;DHT22;13191;47.472;11.214;2023-08-31T02:10:33;11.60;99.90
25248;DHT22;13191;47.472;11.214;2023-08-31T02:12:59;11.60;99.90
25248;DHT22;13191;47.472;11.214;2023-08-31T02:15:25;11.50;99.90
25248;DHT22;13191;47.472;11.214;2023-08-31T02:17:51;11.50;99.90
25248;DHT22;13191;47.472;11.214;2023-08-31T02:20:16;11.50;99.90
25248;DHT22;13191;47.472;11.214;2023-08-31T02:22:42;11.50;99.90
25248;DHT22;13191;47.472;11.214;2023-08-31T02:25:08;11.50;99.90
25248;DHT22;13191;47.472;11.214;2023-08-31T02:27:33;11.50;99.90
25248;DHT22;13191;47.472;11.214;2023-08-31T02:29:59;11.50;99.90
25248;DHT22;13191;47.472;11.214;2023-08-31T02:32:24;11.40;99.90
25248;DHT22;13191;47.472;11.214;2023-08-31T02:34:50;11.40;99.90
25248;DHT22;13191;47.472;11.214;2023-08-31T02:37:16;11.40;99.90
25248;DHT22;13191;47.472;11.214;2023-08-31T02:39:41;11.40;99.90
25248;DHT22;13191;47.472;11.214;2023-08-31T02:42:07;11.40;99.90
25248;DHT22;13191;47.472;11.214;2023-08-31T02:44:33;11.40;99.90
25248;DHT22;13191;47.472;11.214;2023-08-31T02:47:02;11.40;99.90
25248;DHT22;13191;47.472;11.214;2023-08-31T02:49:27;11.40;99.90
25248;DHT22;13191;47.472;11.214;2023-08-31T02:51:53;11.40;99.90
25248;DHT22;13191;47.472;11.214;2023-08-31T02:54:19;11.40;99.90
25248;DHT22;13191;47.472;11.214;2023-08-31T02:56:44;11.30;99.90
25248;DHT22;13191;47.472;11.214;2023-08-31T02:59:10;11.40;99.90
25248;DHT22;13191;47.472;11.214;2023-08-31T03:01:35;11.40;99.90
25248;DHT22;13191;47.472;11.214;2023-08-31T03:04:01;11.40;99.90
25248;DHT22;13191;47.472;11.214;2023-08-31T03:06:26;11.40;99.90
25248;DHT22;13191;47.472;11.214;2023-08-31T03:08:52;11.40;99.90
25248;DHT22;13191;47.472;11.214;2023-08-31T03:11:18;11.40;99.90
25248;DHT22;13191;47.472;11.214;2023-08-31T03:13:43;11.50;99.90
25248;DHT22;13191;47.472;11.214;2023-08-31T03:16:09;11.50;99.90
25248;DHT22;13191;47.472;11.214;2023-08-31T03:18:34;11.50;99.90
25248;DHT22;13191;47.472;11.214;2023-08-31T03:21:00;11.50;99.90
25248;DHT22;13191;47.472;11.214;2023-08-31T03:23:29;11.50;99.90
25248;DHT22;13191;47.472;11.214;2023-08-31T03:25:54;11.50;99.90
25248;DHT22;13191;47.472;11.214;2023-08-31T03:28:20;11.50;99.90
25248;DHT22;13191;47.472;11.214;2023-08-31T03:30:46;11.50;99.90
25248;DHT22;13191;47.472;11.214;2023-08-31T03:33:19;11.50;99.90
25248;DHT22;13191;47.472;11.214;2023-08-31T03:35:44;11.50;99.90
25248;DHT22;13191;47.472;11.214;2023-08-31T03:38:10;11.50;99.90
25248;DHT22;13191;47.472;11.214;2023-08-31T03:40:35;11.60;99.90
25248;DHT22;13191;47.472;11.214;2023-08-31T03:43:01;11.60;99.90
25248;DHT22;13191;47.472;11.214;2023-08-31T03:45:26;11.60;99.90
25248;DHT22;13191;47.472;11.214;2023-08-31T03:47:52;11.60;99.90
25248;DHT22;13191;47.472;11.214;2023-08-31T03:50:18;11.60;99.90
25248;DHT22;13191;47.472;11.214;2023-08-31T03:52:44;11.60;99.90
25248;DHT22;13191;47.472;11.214;2023-08-31T03:55:09;11.60;99.90
25248;DHT22;13191;47.472;11.214;2023-08-31T03:57:35;11.60;99.90
25248;DHT22;13191;47.472;11.214;2023-08-31T04:00:01;11.60;99.90
25248;DHT22;13191;47.472;11.214;2023-08-31T04:02:29;11.60;99.90
25248;DHT22;13191;47.472;11.214;2023-08-31T04:04:57;11.60;99.90
25248;DHT22;13191;47.472;11.214;2023-08-31T04:07:23;11.60;99.90
25248;DHT22;13191;47.472;11.214;2023-08-31T04:09:48;11.60;99.90
25248;DHT22;13191;47.472;11.214;2023-08-31T04:12:14;11.60;99.90
25248;DHT22;13191;47.472;11.214;2023-08-31T04:14:39;11.50;99.90
25248;DHT22;13191;47.472;11.214;2023-08-31T04:17:05;11.20;99.90
25248;DHT22;13191;47.472;11.214;2023-08-31T04:19:30;11.40;99.90
25248;DHT22;13191;47.472;11.214;2023-08-31T04:21:56;11.40;99.90
25248;DHT22;13191;47.472;11.214;2023-08-31T04:24:21;11.40;99.90
25248;DHT22;13191;47.472;11.214;2023-08-31T04:26:47;11.40;99.90
25248;DHT22;13191;47.472;11.214;2023-08-31T04:29:15;11.40;99.90
25248;DHT22;13191;47.472;11.214;2023-08-31T04:31:40;11.40;99.90
25248;DHT22;13191;47.472;11.214;2023-08-31T04:34:06;11.30;99.90
25248;DHT22;13191;47.472;11.214;2023-08-31T04:36:33;11.20;99.90
25248;DHT22;13191;47.472;11.214;2023-08-31T04:38:59;11.30;99.90
25248;DHT22;13191;47.472;11.214;2023-08-31T04:41:24;11.20;99.90
25248;DHT22;13191;47.472;11.214;2023-08-31T04:43:50;11.20;99.90
25248;DHT22;13191;47.472;11.214;2023-08-31T04:46:15;11.20;99.90
25248;DHT22;13191;47.472;11.214;2023-08-31T04:48:41;11.10;99.90
25248;DHT22;13191;47.472;11.214;2023-08-31T04:51:06;11.10;99.90
25248;DHT22;13191;47.472;11.214;2023-08-31T04:53:32;11.10;99.90
25248;DHT22;13191;47.472;11.214;2023-08-31T04:55:58;11.10;99.90
25248;DHT22;13191;47.472;11.214;2023-08-31T04:58:23;11.00;99.90
25248;DHT22;13191;47.472;11.214;2023-08-31T05:00:51;11.00;99.90
25248;DHT22;13191;47.472;11.214;2023-08-31T05:03:17;11.00;99.90
25248;DHT22;13191;47.472;11.214;2023-08-31T05:05:42;11.00;99.90
25248;DHT22;13191;47.472;11.214;2023-08-31T05:08:09;11.00;99.90
25248;DHT22;13191;47.472;11.214;2023-08-31T05:10:34;11.00;99.90
25248;DHT22;13191;47.472;11.214;2023-08-31T05:13:00;11.00;99.90
25248;DHT22;13191;47.472;11.214;2023-08-31T05:15:26;10.90;99.90
25248;DHT22;13191;47.472;11.214;2023-08-31T05:17:54;11.00;99.90
25248;DHT22;13191;47.472;11.214;2023-08-31T05:20:20;10.90;99.90
25248;DHT22;13191;47.472;11.214;2023-08-31T05:22:48;10.90;99.90
25248;DHT22;13191;47.472;11.214;2023-08-31T05:25:13;10.90;99.90
25248;DHT22;13191;47.472;11.214;2023-08-31T05:27:39;10.90;99.90
25248;DHT22;13191;47.472;11.214;2023-08-31T05:30:05;10.90;99.90
25248;DHT22;13191;47.472;11.214;2023-08-31T05:32:30;10.90;99.90
25248;DHT22;13191;47.472;11.214;2023-08-31T05:34:56;10.90;99.90
25248;DHT22;13191;47.472;11.214;2023-08-31T05:37:23;10.90;99.90
25248;DHT22;13191;47.472;11.214;2023-08-31T05:39:49;10.90;99.90
25248;DHT22;13191;47.472;11.214;2023-08-31T05:42:15;10.90;99.90
25248;DHT22;13191;47.472;11.214;2023-08-31T05:44:40;10.90;99.90
25248;DHT22;13191;47.472;11.214;2023-08-31T05:47:06;10.90;99.90
25248;DHT22;13191;47.472;11.214;2023-08-31T05:49:32;10.90;99.90
25248;DHT22;13191;47.472;11.214;2023-08-31T05:51:58;10.90;99.90
25248;DHT22;13191;47.472;11.214;2023-08-31T05:54:24;10.90;99.90
25248;DHT22;13191;47.472;11.214;2023-08-31T05:56:49;11.00;99.90
25248;DHT22;13191;47.472;11.214;2023-08-31T05:59:15;10.90;99.90
25248;DHT22;13191;47.472;11.214;2023-08-31T06:01:40;11.00;99.90
25248;DHT22;13191;47.472;11.214;2023-08-31T06:04:07;11.00;99.90
25248;DHT22;13191;47.472;11.214;2023-08-31T06:06:32;11.00;99.90
25248;DHT22;13191;47.472;11.214;2023-08-31T06:08:58;11.10;99.90
25248;DHT22;13191;47.472;11.214;2023-08-31T06:11:24;11.10;99.90
25248;DHT22;13191;47.472;11.214;2023-08-31T06:13:49;11.10;99.90
25248;DHT22;13191;47.472;11.214;2023-08-31T06:16:15;11.10;99.90
25248;DHT22;13191;47.472;11.214;2023-08-31T06:18:40;11.10;99.90
25248;DHT22;13191;47.472;11.214;2023-08-31T06:21:06;11.20;99.90
25248;DHT22;13191;47.472;11.214;2023-08-31T06:23:31;11.20;99.90
25248;DHT22;13191;47.472;11.214;2023-08-31T06:25:57;11.30;99.90
25248;DHT22;13191;47.472;11.214;2023-08-31T06:28:23;11.30;99.90
25248;DHT22;13191;47.472;11.214;2023-08-31T06:30:48;11.40;99.90
25248;DHT22;13191;47.472;11.214;2023-08-31T06:33:15;11.40;99.90
25248;DHT22;13191;47.472;11.214;2023-08-31T06:35:41;11.40;99.90
25248;DHT22;13191;47.472;11.214;2023-08-31T06:38:07;11.40;99.90
25248;DHT22;13191;47.472;11.214;2023-08-31T06:40:32;11.50;99.90
25248;DHT22;13191;47.472;11.214;2023-08-31T06:42:58;11.50;99.90
25248;DHT22;13191;47.472;11.214;2023-08-31T06:45:24;11.60;99.90
25248;DHT22;13191;47.472;11.214;2023-08-31T06:47:50;11.60;99.90
25248;DHT22;13191;47.472;11.214;2023-08-31T06:50:16;11.60;99.90
25248;DHT22;13191;47.472;11.214;2023-08-31T06:52:41;11.70;99.90
25248;DHT22;13191;47.472;11.214;2023-08-31T06:55:07;11.80;99.90
25248;DHT22;13191;47.472;11.214;2023-08-31T06:57:33;11.80;99.90
25248;DHT22;13191;47.472;11.214;2023-08-31T06:59:59;11.80;99.90
25248;DHT22;13191;47.472;11.214;2023-08-31T07:02:26;11.90;99.90
25248;DHT22;13191;47.472;11.214;2023-08-31T07:04:52;11.90;99.90
25248;DHT22;13191;47.472;11.214;2023-08-31T07:07:18;12.00;99.90
25248;DHT22;13191;47.472;11.214;2023-08-31T07:09:45;12.00;99.90
25248;DHT22;13191;47.472;11.214;2023-08-31T07:12:11;12.10;99.90
25248;DHT22;13191;47.472;11.214;2023-08-31T07:14:38;12.10;99.90
25248;DHT22;13191;47.472;11.214;2023-08-31T07:17:04;12.20;99.90
25248;DHT22;13191;47.472;11.214;2023-08-31T07:19:29;12.30;99.90
25248;DHT22;13191;47.472;11.214;2023-08-31T07:21:55;12.30;99.90
25248;DHT22;13191;47.472;11.214;2023-08-31T07:24:22;12.30;99.90
25248;DHT22;13191;47.472;11.214;2023-08-31T07:26:47;12.40;99.90
25248;DHT22;13191;47.472;11.214;2023-08-31T07:29:14;12.40;99.90
25248;DHT22;13191;47.472;11.214;2023-08-31T07:31:39;12.40;99.90
25248;DHT22;13191;47.472;11.214;2023-08-31T07:34:05;12.50;99.90
25248;DHT22;13191;47.472;11.214;2023-08-31T07:36:31;12.50;99.90
25248;DHT22;13191;47.472;11.214;2023-08-31T07:38:56;12.50;99.90
25248;DHT22;13191;47.472;11.214;2023-08-31T07:41:22;12.50;99.90
25248;DHT22;13191;47.472;11.214;2023-08-31T07:43:47;12.60;99.90
25248;DHT22;13191;47.472;11.214;2023-08-31T07:46:15;12.60;99.90
25248;DHT22;13191;47.472;11.214;2023-08-31T07:48:41;12.60;99.90
25248;DHT22;13191;47.472;11.214;2023-08-31T07:51:07;12.60;99.90
25248;DHT22;13191;47.472;11.214;2023-08-31T07:53:33;12.60;99.90
25248;DHT22;13191;47.472;11.214;2023-08-31T07:55:59;12.60;99.90
25248;DHT22;13191;47.472;11.214;2023-08-31T07:58:25;12.60;99.90
25248;DHT22;13191;47.472;11.214;2023-08-31T08:00:57;12.60;99.90
25248;DHT22;13191;47.472;11.214;2023-08-31T08:03:23;12.70;99.90
25248;DHT22;13191;47.472;11.214;2023-08-31T08:05:49;12.70;99.90
25248;DHT22;13191;47.472;11.214;2023-08-31T08:08:14;12.70;99.90
25248;DHT22;13191;47.472;11.214;2023-08-31T08:10:40;12.70;99.90
25248;DHT22;13191;47.472;11.214;2023-08-31T08:13:06;12.70;99.90
25248;DHT22;13191;47.472;11.214;2023-08-31T08:15:31;12.80;99.90
25248;DHT22;13191;47.472;11.214;2023-08-31T08:17:57;12.80;99.90
25248;DHT22;13191;47.472;11.214;2023-08-31T08:20:23;12.80;99.90
25248;DHT22;13191;47.472;11.214;2023-08-31T08:22:49;12.90;99.90
25248;DHT22;13191;47.472;11.214;2023-08-31T08:25:21;12.90;99.90
25248;DHT22;13191;47.472;11.214;2023-08-31T08:27:47;13.00;99.90
25248;DHT22;13191;47.472;11.214;2023-08-31T08:30:13;13.10;99.90
25248;DHT22;13191;47.472;11.214;2023-08-31T08:32:40;13.20;99.90
25248;DHT22;13191;47.472;11.214;2023-08-31T08:35:06;13.30;99.90
25248;DHT22;13191;47.472;11.214;2023-08-31T08:37:32;13.30;99.90
25248;DHT22;13191;47.472;11.214;2023-08-31T08:39:58;13.40;99.90
25248;DHT22;13191;47.472;11.214;2023-08-31T08:42:25;13.40;99.90
25248;DHT22;13191;47.472;11.214;2023-08-31T08:44:51;13.50;99.90
25248;DHT22;13191;47.472;11.214;2023-08-31T08:47:17;13.50;99.90
25248;DHT22;13191;47.472;11.214;2023-08-31T08:49:43;13.60;99.90
25248;DHT22;13191;47.472;11.214;2023-08-31T08:52:10;13.70;99.90
25248;DHT22;13191;47.472;11.214;2023-08-31T08:54:36;13.80;99.90
25248;DHT22;13191;47.472;11.214;2023-08-31T08:57:02;13.80;99.90
25248;DHT22;13191;47.472;11.214;2023-08-31T08:59:30;13.90;99.90
25248;DHT22;13191;47.472;11.214;2023-08-31T09:01:56;14.00;99.90
25248;DHT22;13191;47.472;11.214;2023-08-31T09:04:22;14.00;99.90
25248;DHT22;13191;47.472;11.214;2023-08-31T09:06:48;14.00;99.90
25248;DHT22;13191;47.472;11.214;2023-08-31T09:09:13;14.10;99.90
25248;DHT22;13191;47.472;11.214;2023-08-31T09:11:39;14.20;99.90
25248;DHT22;13191;47.472;11.214;2023-08-31T09:14:15;14.20;99.90
25248;DHT22;13191;47.472;11.214;2023-08-31T09:16:44;14.30;99.90
25248;DHT22;13191;47.472;11.214;2023-08-31T09:19:19;14.30;99.90
25248;DHT22;13191;47.472;11.214;2023-08-31T09:21:47;14.40;99.90
25248;DHT22;13191;47.472;11.214;2023-08-31T09:24:12;14.50;99.90
25248;DHT22;13191;47.472;11.214;2023-08-31T09:26:39;14.40;99.90
25248;DHT22;13191;47.472;11.214;2023-08-31T09:29:06;14.50;99.90
25248;DHT22;13191;47.472;11.214;2023-08-31T09:31:32;14.50;99.90
25248;DHT22;13191;47.472;11.214;2023-08-31T09:33:58;14.60;99.90
25248;DHT22;13191;47.472;11.214;2023-08-31T09:36:23;14.60;99.90
25248;DHT22;13191;47.472;11.214;2023-08-31T09:38:49;14.60;99.90
25248;DHT22;13191;47.472;11.214;2023-08-31T09:41:15;14.60;99.90
25248;DHT22;13191;47.472;11.214;2023-08-31T09:43:41;14.70;99.90
25248;DHT22;13191;47.472;11.214;2023-08-31T09:46:08;14.70;99.90
25248;DHT22;13191;47.472;11.214;2023-08-31T09:48:35;14.80;99.90
25248;DHT22;13191;47.472;11.214;2023-08-31T09:51:04;14.80;99.90
25248;DHT22;13191;47.472;11.214;2023-08-31T09:53:31;14.90;99.90
25248;DHT22;13191;47.472;11.214;2023-08-31T09:55:57;14.90;99.90
25248;DHT22;13191;47.472;11.214;2023-08-31T09:58:23;15.00;99.90
25248;DHT22;13191;47.472;11.214;2023-08-31T10:00:50;15.00;99.90
25248;DHT22;13191;47.472;11.214;2023-08-31T10:03:15;15.10;99.90
25248;DHT22;13191;47.472;11.214;2023-08-31T10:05:45;15.10;99.90
25248;DHT22;13191;47.472;11.214;2023-08-31T10:08:14;15.20;99.90
25248;DHT22;13191;47.472;11.214;2023-08-31T10:10:41;15.20;99.90
25248;DHT22;13191;47.472;11.214;2023-08-31T10:13:07;15.30;99.90
25248;DHT22;13191;47.472;11.214;2023-08-31T10:15:36;15.30;99.90
25248;DHT22;13191;47.472;11.214;2023-08-31T10:18:03;15.40;99.90
25248;DHT22;13191;47.472;11.214;2023-08-31T10:20:30;15.40;99.90
25248;DHT22;13191;47.472;11.214;2023-08-31T10:23:03;15.40;99.90
25248;DHT22;13191;47.472;11.214;2023-08-31T10:25:59;15.50;99.90
25248;DHT22;13191;47.472;11.214;2023-08-31T10:28:26;15.50;99.90
25248;DHT22;13191;47.472;11.214;2023-08-31T10:31:10;15.50;99.90
25248;DHT22;13191;47.472;11.214;2023-08-31T10:33:46;15.60;99.90
25248;DHT22;13191;47.472;11.214;2023-08-31T10:36:19;15.60;99.90
25248;DHT22;13191;47.472;11.214;2023-08-31T10:38:47;15.70;99.90
25248;DHT22;13191;47.472;11.214;2023-08-31T10:43:51;15.80;99.90
25248;DHT22;13191;47.472;11.214;2023-08-31T10:46:31;15.80;99.90
25248;DHT22;13191;47.472;11.214;2023-08-31T10:48:59;15.90;99.90
25248;DHT22;13191;47.472;11.214;2023-08-31T10:51:31;16.00;99.90
25248;DHT22;13191;47.472;11.214;2023-08-31T10:56:52;16.10;99.90
25248;DHT22;13191;47.472;11.214;2023-08-31T10:59:22;16.20;99.90
25248;DHT22;13191;47.472;11.214;2023-08-31T11:02:01;16.30;99.90
25248;DHT22;13191;47.472;11.214;2023-08-31T11:04:30;16.40;99.90
25248;DHT22;13191;47.472;11.214;2023-08-31T11:07:17;16.40;99.90
25248;DHT22;13191;47.472;11.214;2023-08-31T11:09:43;16.50;99.90
25248;DHT22;13191;47.472;11.214;2023-08-31T11:12:10;16.60;99.90
25248;DHT22;13191;47.472;11.214;2023-08-31T11:14:36;16.70;99.90
25248;DHT22;13191;47.472;11.214;2023-08-31T11:17:02;16.80;99.90
25248;DHT22;13191;47.472;11.214;2023-08-31T11:19:31;16.80;99.90
25248;DHT22;13191;47.472;11.214;2023-08-31T11:21:57;16.90;99.90
25248;DHT22;13191;47.472;11.214;2023-08-31T11:24:22;17.00;99.90
25248;DHT22;13191;47.472;11.214;2023-08-31T11:26:50;17.00;99.90
25248;DHT22;13191;47.472;11.214;2023-08-31T11:29:16;17.10;99.90
25248;DHT22;13191;47.472;11.214;2023-08-31T11:31:42;17.10;99.90
25248;DHT22;13191;47.472;11.214;2023-08-31T11:34:12;17.10;99.90
25248;DHT22;13191;47.472;11.214;2023-08-31T11:36:38;17.20;99.90
25248;DHT22;13191;47.472;11.214;2023-08-31T11:39:06;17.30;99.90
25248;DHT22;13191;47.472;11.214;2023-08-31T11:41:33;17.40;99.90
25248;DHT22;13191;47.472;11.214;2023-08-31T11:44:01;17.50;99.90
25248;DHT22;13191;47.472;11.214;2023-08-31T11:46:27;17.50;99.90
25248;DHT22;13191;47.472;11.214;2023-08-31T11:48:53;17.60;99.90
25248;DHT22;13191;47.472;11.214;2023-08-31T11:51:19;17.70;99.90
25248;DHT22;13191;47.472;11.214;2023-08-31T11:53:45;17.70;99.90
25248;DHT22;13191;47.472;11.214;2023-08-31T11:56:11;17.70;99.90
25248;DHT22;13191;47.472;11.214;2023-08-31T11:58:43;17.60;99.90
25248;DHT22;13191;47.472;11.214;2023-08-31T12:01:17;17.70;99.90
25248;DHT22;13191;47.472;11.214;2023-08-31T12:03:44;17.80;99.90
25248;DHT22;13191;47.472;11.214;2023-08-31T12:06:10;17.90;99.90
25248;DHT22;13191;47.472;11.214;2023-08-31T12:08:37;17.90;99.90
25248;DHT22;13191;47.472;11.214;2023-08-31T12:11:06;17.90;99.90
25248;DHT22;13191;47.472;11.214;2023-08-31T12:13:32;18.00;99.90
25248;DHT22;13191;47.472;11.214;2023-08-31T12:15:58;18.10;99.90
25248;DHT22;13191;47.472;11.214;2023-08-31T12:18:23;18.10;99.90
25248;DHT22;13191;47.472;11.214;2023-08-31T12:20:51;18.20;99.90
25248;DHT22;13191;47.472;11.214;2023-08-31T12:23:17;18.30;99.90
25248;DHT22;13191;47.472;11.214;2023-08-31T12:25:50;18.30;99.90
25248;DHT22;13191;47.472;11.214;2023-08-31T12:28:17;18.40;99.90
25248;DHT22;13191;47.472;11.214;2023-08-31T12:30:49;18.40;99.90
25248;DHT22;13191;47.472;11.214;2023-08-31T12:33:15;18.50;99.90
25248;DHT22;13191;47.472;11.214;2023-08-31T12:35:41;18.60;99.90
25248;DHT22;13191;47.472;11.214;2023-08-31T12:38:06;18.60;99.90
25248;DHT22;13191;47.472;11.214;2023-08-31T12:40:32;18.60;99.90
25248;DHT22;13191;47.472;11.214;2023-08-31T12:42:58;18.60;99.90
25248;DHT22;13191;47.472;11.214;2023-08-31T12:45:23;18.60;99.90
25248;DHT22;13191;47.472;11.214;2023-08-31T12:47:49;18.70;99.90
25248;DHT22;13191;47.472;11.214;2023-08-31T12:50:15;18.70;99.90
25248;DHT22;13191;47.472;11.214;2023-08-31T12:52:40;18.70;99.90
25248;DHT22;13191;47.472;11.214;2023-08-31T12:55:14;18.70;99.90
25248;DHT22;13191;47.472;11.214;2023-08-31T12:57:40;18.80;99.90
25248;DHT22;13191;47.472;11.214;2023-08-31T13:00:10;18.80;99.90
25248;DHT22;13191;47.472;11.214;2023-08-31T13:02:39;18.80;99.90
25248;DHT22;13191;47.472;11.214;2023-08-31T13:05:06;18.90;99.90
25248;DHT22;13191;47.472;11.214;2023-08-31T13:07:32;19.00;99.90
25248;DHT22;13191;47.472;11.214;2023-08-31T13:10:00;19.00;99.90
25248;DHT22;13191;47.472;11.214;2023-08-31T13:12:25;19.00;99.90
25248;DHT22;13191;47.472;11.214;2023-08-31T13:14:51;19.10;99.90
25248;DHT22;13191;47.472;11.214;2023-08-31T13:17:17;19.10;99.90
25248;DHT22;13191;47.472;11.214;2023-08-31T13:19:43;19.20;99.90
25248;DHT22;13191;47.472;11.214;2023-08-31T13:22:08;19.20;99.90
25248;DHT22;13191;47.472;11.214;2023-08-31T13:24:34;19.30;99.90
25248;DHT22;13191;47.472;11.214;2023-08-31T13:26:59;19.30;99.90
25248;DHT22;13191;47.472;11.214;2023-08-31T13:29:25;19.30;99.90
25248;DHT22;13191;47.472;11.214;2023-08-31T13:31:51;19.30;99.90
25248;DHT22;13191;47.472;11.214;2023-08-31T13:34:17;19.30;99.90
25248;DHT22;13191;47.472;11.214;2023-08-31T13:36:43;19.30;99.90
25248;DHT22;13191;47.472;11.214;2023-08-31T13:39:09;19.30;99.90
25248;DHT22;13191;47.472;11.214;2023-08-31T13:41:35;19.30;99.90
25248;DHT22;13191;47.472;11.214;2023-08-31T13:44:00;19.30;99.90
25248;DHT22;13191;47.472;11.214;2023-08-31T13:46:26;19.30;99.90
25248;DHT22;13191;47.472;11.214;2023-08-31T13:48:52;19.40;99.90
25248;DHT22;13191;47.472;11.214;2023-08-31T13:51:17;19.40;99.90
25248;DHT22;13191;47.472;11.214;2023-08-31T13:53:43;19.40;99.90
25248;DHT22;13191;47.472;11.214;2023-08-31T13:56:08;19.50;99.90
25248;DHT22;13191;47.472;11.214;2023-08-31T13:58:34;19.50;99.90
25248;DHT22;13191;47.472;11.214;2023-08-31T14:01:02;19.50;99.90
25248;DHT22;13191;47.472;11.214;2023-08-31T14:03:29;19.60;99.90
25248;DHT22;13191;47.472;11.214;2023-08-31T14:05:55;19.60;99.90
25248;DHT22;13191;47.472;11.214;2023-08-31T14:08:20;19.60;99.90
25248;DHT22;13191;47.472;11.214;2023-08-31T14:10:46;19.50;99.90
25248;DHT22;13191;47.472;11.214;2023-08-31T14:13:11;19.60;99.90
25248;DHT22;13191;47.472;11.214;2023-08-31T14:15:37;19.60;99.90
25248;DHT22;13191;47.472;11.214;2023-08-31T14:18:09;19.70;99.90
25248;DHT22;13191;47.472;11.214;2023-08-31T14:20:35;19.70;99.90
25248;DHT22;13191;47.472;11.214;2023-08-31T14:23:00;19.70;99.90
25248;DHT22;13191;47.472;11.214;2023-08-31T14:25:26;19.70;99.90
25248;DHT22;13191;47.472;11.214;2023-08-31T14:27:51;19.80;99.90
25248;DHT22;13191;47.472;11.214;2023-08-31T14:30:17;19.80;99.90
25248;DHT22;13191;47.472;11.214;2023-08-31T14:32:42;19.90;99.90
25248;DHT22;13191;47.472;11.214;2023-08-31T14:35:08;19.80;99.90
25248;DHT22;13191;47.472;11.214;2023-08-31T14:37:34;19.90;99.90
25248;DHT22;13191;47.472;11.214;2023-08-31T14:39:59;19.80;99.90
25248;DHT22;13191;47.472;11.214;2023-08-31T14:42:25;19.80;99.90
25248;DHT22;13191;47.472;11.214;2023-08-31T14:44:51;19.80;99.90
25248;DHT22;13191;47.472;11.214;2023-08-31T14:47:16;19.80;99.90
25248;DHT22;13191;47.472;11.214;2023-08-31T14:49:42;19.80;99.90
25248;DHT22;13191;47.472;11.214;2023-08-31T14:52:08;19.70;99.90
25248;DHT22;13191;47.472;11.214;2023-08-31T14:54:38;19.80;99.90
25248;DHT22;13191;47.472;11.214;2023-08-31T14:57:04;19.80;99.90
25248;DHT22;13191;47.472;11.214;2023-08-31T14:59:31;19.90;99.90
25248;DHT22;13191;47.472;11.214;2023-08-31T15:01:57;19.90;99.90
25248;DHT22;13191;47.472;11.214;2023-08-31T15:04:23;19.90;99.90
25248;DHT22;13191;47.472;11.214;2023-08-31T15:06:48;19.80;99.90
25248;DHT22;13191;47.472;11.214;2023-08-31T15:09:14;19.80;99.90
25248;DHT22;13191;47.472;11.214;2023-08-31T15:11:39;19.80;99.90
25248;DHT22;13191;47.472;11.214;2023-08-31T15:14:05;19.80;99.90
25248;DHT22;13191;47.472;11.214;2023-08-31T15:16:31;19.80;99.90
25248;DHT22;13191;47.472;11.214;2023-08-31T15:18:59;19.80;99.90
25248;DHT22;13191;47.472;11.214;2023-08-31T15:21:25;19.70;99.90
25248;DHT22;13191;47.472;11.214;2023-08-31T15:23:50;19.60;99.90